Terminal Aerodrome Forecast
Issued by NWS

Home | Current Version | Previous Version | Text Only | Print | Product List | Glossary On
Versions: 1 2 3 4 5 6 7 8 9 10 11 12 13 14 15 16 17 18
000
FTUS46 KEKA 032329
TAFCEC
TAF
KCEC 032329Z 0400/0424 34011KT 5SM HZ FEW015
     FM040300 35004KT P6SM BKN100
     FM040500 04003KT P6SM FEW025 BKN050
     FM041000 11005KT P6SM SCT025 OVC050
     FM041500 17009KT 6SM -RA BR BKN025=

USA.gov is the U.S. government's official web portal to all federal, state and local government web resources and services.